Terminal Aerodrome Forecast
Issued by NWS Quad Cities IA IL

Home | Current Version | Previous Version | Text Only | Print | Product List | Glossary On
Versions: 1 2 3 4 5 6 7 8 9 10 11 12 13 14 15 16 17 18 19 20 21 22 23 24 25 26
000
FTUS43 KDVN 200406 AAA
TAFMLI
TAF AMD
KMLI 200406Z 2004/2024 08008KT 1SM BR OVC004
      TEMPO 2004/2008 1/2SM -DZ FG BKN002 OVC004
     FM200800 10004KT 1/2SM -DZ FG OVC003
     FM200900 10004KT 1/4SM -DZ FG OVC002
     FM201600 12005KT 1SM BR OVC007=

USA.gov is the U.S. government's official web portal to all federal, state and local government web resources and services.